Accueil
METAR-TAF:

METAR-TAF

Aéroports :

Cerklje ob Krki, Slovénie

latitude: 45-53-59N, longitude: 15-30-55E, altitude: 157 m

Observation

Le bulletin a été fait il y a 20 minutes, à 08:00 UTC
Vent 4 kt de est
Température 1°C
Humidité 100%
Pression 1007 hPa
Visibilité: 0700 m
brouillard

METAR: LJCE 050800Z 08004KT 0700 FG VV002 01/01 Q1007 R09/CLRD// RMK RED

Heure: 09:20 (08:20 UTC)

Prévision

Le bulletin a été fait il y a 3 heures et 20 minutes, à 05:00 UTC
Prévision valable du 05 à 06 UTC au 05 à 15 UTC
Vent 5 kt de nord-est
Visibilité: 0700 m
à une hauteur de 200 ft
brouillard
Temporairement
du 05 à 06 UTC au 05 à 09 UTC
Visibilité: 1500 m
Nuages fragmentés à une hauteur de 500 ft
bancs de brouillard, brume
Evoluant progressivement
du 05 à 09 UTC au 05 à 11 UTC
Visibilité: 7000 m
Nuages épars à une hauteur de 1000 ft

TAF: LJCE 050500Z 0506/0515 04005KT 0700 FG VV002 TEMPO 0506/0509 1500 BCFG BR BKN005 BECMG 0509/0511 7000 NSW SCT010

Observations et prévisions météorologiques de plus de 4000 aéroports (messages METAR et TAF).

Les stations disponibles sont représentées par des disques jaunes et rouges sur la carte.

Passer la souris dessus pour voir le nom de la station.

Cliquer dessus pour voir les observations et prévisions météorologiques.

Pour changer de carte: cliquez sur les boutons verts avec une croix noire pour zoomer, sur le bouton vert avec un tiret pour effectuer un zoom arrière, ou sur les flèches vertes pour les cartes adjacentes.


METAR-TAF: